createdAt,value
2018-02-16T00:00:03.212Z,2.2
2018-02-16T00:05:02.599Z,2.2
2018-02-16T00:10:02.479Z,2.2
2018-02-16T00:15:02.813Z,2.2
2018-02-16T00:20:03.250Z,2.2
2018-02-16T00:25:02.512Z,2.2
2018-02-16T00:30:02.808Z,2.3
2018-02-16T00:35:03.051Z,2.3
2018-02-16T00:40:02.858Z,2.2
2018-02-16T00:45:03.164Z,2.3
2018-02-16T00:50:02.524Z,2.3
2018-02-16T00:55:02.843Z,2.3
2018-02-16T01:00:03.202Z,2.4
2018-02-16T01:05:02.601Z,2.4
2018-02-16T01:10:02.541Z,2.4
2018-02-16T01:15:02.817Z,2.4
2018-02-16T01:20:03.251Z,2.5
2018-02-16T01:25:02.518Z,2.5
2018-02-16T01:30:02.982Z,2.4
2018-02-16T01:35:03.279Z,2.4
2018-02-16T01:40:03.181Z,2.4
2018-02-16T01:45:02.473Z,2.4
2018-02-16T01:50:02.772Z,2.4
2018-02-16T01:55:03.126Z,2.4
2018-02-16T02:00:02.470Z,2.5
2018-02-16T02:05:02.747Z,2.5
2018-02-16T02:10:02.540Z,2.6
2018-02-16T02:15:02.820Z,2.6
2018-02-16T02:20:03.249Z,2.6
2018-02-16T02:25:02.522Z,2.6
2018-02-16T02:30:05.373Z,2.6
2018-02-16T02:35:03.229Z,2.6
2018-02-16T02:40:02.918Z,2.7
2018-02-16T02:45:03.360Z,2.7
2018-02-16T02:50:02.680Z,2.7
2018-02-16T02:55:02.971Z,2.7
2018-02-16T03:00:03.223Z,2.7
2018-02-16T03:05:02.582Z,2.7
2018-02-16T03:10:02.446Z,2.7
2018-02-16T03:15:07.801Z,2.7
2018-02-16T03:20:08.210Z,2.7
2018-02-16T03:25:02.454Z,2.7
2018-02-16T03:30:02.772Z,2.7
2018-02-16T03:35:03.192Z,2.7
2018-02-16T03:40:02.911Z,2.7
2018-02-16T03:45:03.232Z,2.7
2018-02-16T03:50:02.567Z,2.7
2018-02-16T03:55:02.889Z,2.7
2018-02-16T04:00:03.193Z,2.6
2018-02-16T04:05:02.573Z,2.6
2018-02-16T04:10:02.314Z,2.6
2018-02-16T04:15:02.693Z,2.5
2018-02-16T04:20:03.074Z,2.5
2018-02-16T04:25:02.453Z,2.3
2018-02-16T04:30:02.752Z,2.3
2018-02-16T04:35:03.056Z,2.2
2018-02-16T04:40:02.886Z,2.1
2018-02-16T04:45:03.262Z,2
2018-02-16T04:50:02.632Z,1.9
2018-02-16T04:55:02.936Z,1.8
2018-02-16T05:00:03.216Z,1.7
2018-02-16T05:05:02.557Z,1.6
2018-02-16T05:10:02.321Z,1.6
2018-02-16T05:15:02.705Z,1.5
2018-02-16T05:20:03.069Z,1.5
2018-02-16T05:25:02.454Z,1.5
2018-02-16T05:30:02.764Z,1.4
2018-02-16T05:35:03.049Z,1.4
2018-02-16T05:40:02.868Z,1.3
2018-02-16T05:45:03.191Z,1.3
2018-02-16T05:50:05.096Z,1.2
2018-02-16T05:55:02.877Z,1.2
2018-02-16T06:00:03.214Z,1.2
2018-02-16T06:05:02.573Z,1.2
2018-02-16T06:10:02.422Z,1.1
2018-02-16T06:15:02.737Z,1.1
2018-02-16T06:20:03.107Z,1.1
2018-02-16T06:25:02.483Z,1.1
2018-02-16T06:30:02.743Z,1.1
2018-02-16T06:35:03.024Z,1
2018-02-16T06:40:02.883Z,1
2018-02-16T06:45:03.169Z,1
2018-02-16T06:50:02.507Z,1
2018-02-16T06:55:02.826Z,0.9
2018-02-16T07:00:03.164Z,0.9
2018-02-16T07:05:02.539Z,0.9
2018-02-16T07:10:05.821Z,1
2018-02-16T07:15:02.649Z,1
2018-02-16T07:20:03.000Z,1.1
2018-02-16T07:25:03.280Z,1.1
2018-02-16T07:30:02.648Z,1.1
2018-02-16T07:35:02.967Z,1.3
2018-02-16T07:40:02.765Z,1.3
2018-02-16T07:45:03.077Z,1.5
2018-02-16T07:50:02.488Z,1.7
2018-02-16T07:55:02.812Z,1.9
2018-02-16T08:00:03.148Z,2
2018-02-16T08:05:02.544Z,2
2018-02-16T08:10:02.421Z,2
2018-02-16T08:15:02.735Z,2.1
2018-02-16T08:20:03.118Z,2.2
2018-02-16T08:25:02.516Z,2.3
2018-02-16T08:30:05.382Z,2.7
2018-02-16T08:35:03.242Z,2.6
2018-02-16T08:40:02.965Z,2.8
2018-02-16T08:45:03.337Z,3
2018-02-16T08:50:02.617Z,3.1
2018-02-16T08:55:02.919Z,3.2
2018-02-16T09:00:03.215Z,3.4
2018-02-16T09:05:02.567Z,3.5
2018-02-16T09:10:08.381Z,3.7
2018-02-16T09:15:02.684Z,3.7
2018-02-16T09:20:03.116Z,3.8
2018-02-16T09:25:02.466Z,3.9
2018-02-16T09:30:02.784Z,4
2018-02-16T09:35:03.094Z,4.2
2018-02-16T09:40:02.882Z,4.2
2018-02-16T09:45:03.241Z,4.4
2018-02-16T09:50:02.571Z,4.5
2018-02-16T09:55:02.931Z,4.6
2018-02-16T10:00:03.231Z,4.8
2018-02-16T10:05:02.616Z,4.9
2018-02-16T10:10:02.489Z,5
2018-02-16T10:15:02.824Z,5
2018-02-16T10:20:03.282Z,5.1
2018-02-16T10:25:02.536Z,5.2
2018-02-16T10:30:02.844Z,5.2
2018-02-16T10:35:03.267Z,5.3
2018-02-16T10:40:03.186Z,5.4
2018-02-16T10:45:02.455Z,5.4
2018-02-16T10:50:02.767Z,5.4
2018-02-16T10:55:03.213Z,5.4
2018-02-16T11:00:02.655Z,5.5
2018-02-16T11:05:03.018Z,5.6
2018-02-16T11:10:02.850Z,5.6
2018-02-16T11:15:03.312Z,5.8
2018-02-16T11:20:02.677Z,5.8
2018-02-16T11:25:03.154Z,5.8
2018-02-16T11:30:02.637Z,5.9
2018-02-16T11:35:02.960Z,6
2018-02-16T11:40:02.793Z,6
2018-02-16T11:45:02.826Z,6.1
2018-02-16T11:50:03.242Z,6.2
2018-02-16T11:55:02.520Z,6.2
2018-02-16T12:00:02.831Z,6.3
2018-02-16T12:05:03.239Z,6.4
2018-02-16T12:10:02.955Z,6.3
2018-02-16T12:15:05.802Z,6.4
2018-02-16T12:20:03.247Z,6.4
2018-02-16T12:25:02.560Z,6.5
2018-02-16T12:30:02.999Z,6.7
2018-02-16T12:35:03.310Z,6.7
2018-02-16T12:40:03.198Z,6.8
2018-02-16T12:45:02.482Z,7
2018-02-16T12:50:02.932Z,7.1
2018-02-16T12:55:03.266Z,7.2
2018-02-16T13:00:02.644Z,7.5
2018-02-16T13:05:03.040Z,7.7
2018-02-16T13:10:02.903Z,7.9
2018-02-16T13:15:02.358Z,8
2018-02-16T13:20:02.723Z,8
2018-02-16T13:25:03.137Z,8.1
2018-02-16T13:30:02.502Z,8
2018-02-16T13:35:02.911Z,7.4
2018-02-16T13:40:02.749Z,6.9
2018-02-16T13:45:03.093Z,6.6
2018-02-16T13:50:05.046Z,6.4
2018-02-16T13:55:02.836Z,6.4
2018-02-16T14:00:03.193Z,6.2
2018-02-16T14:05:02.604Z,6.2
2018-02-16T14:10:02.482Z,6.3
2018-02-16T14:15:02.818Z,6.8
2018-02-16T14:20:03.293Z,6.8
2018-02-16T14:25:02.535Z,7.1
2018-02-16T14:30:03.007Z,7.7
2018-02-16T14:35:03.307Z,8
2018-02-16T14:40:03.201Z,8
2018-02-16T14:45:02.583Z,7.7
2018-02-16T14:50:02.993Z,7.1
2018-02-16T14:55:02.422Z,6.7
2018-02-16T15:00:02.752Z,6.4
2018-02-16T15:05:03.222Z,6.2
2018-02-16T15:10:02.914Z,6.2
2018-02-16T15:15:03.350Z,6
2018-02-16T15:20:02.726Z,5.9
2018-02-16T15:25:03.141Z,5.8
2018-02-16T15:30:02.493Z,5.7
2018-02-16T15:35:05.441Z,5.6
2018-02-16T15:40:03.221Z,5.6
2018-02-16T15:45:02.648Z,5.8
2018-02-16T15:50:02.995Z,5.7
2018-02-16T15:55:02.389Z,5.7
2018-02-16T16:00:07.787Z,5.6
2018-02-16T16:05:03.026Z,5.6
2018-02-16T16:10:02.851Z,5.6
2018-02-16T16:15:03.351Z,5.5
2018-02-16T16:20:02.740Z,5.4
2018-02-16T16:25:05.584Z,5.1
2018-02-16T16:30:05.391Z,5
2018-02-16T16:35:03.257Z,5
2018-02-16T16:40:03.178Z,4.8
2018-02-16T16:45:02.452Z,4.7
2018-02-16T16:50:02.773Z,4.6
2018-02-16T16:55:03.142Z,4.6
2018-02-16T17:00:02.480Z,4.6
2018-02-16T17:05:02.851Z,4.5
2018-02-16T17:10:02.605Z,4.4
2018-02-16T17:15:05.550Z,4.1
2018-02-16T17:20:02.984Z,4.1
2018-02-16T17:25:05.821Z,3.8
2018-02-16T17:30:03.181Z,3.8
2018-02-16T17:35:02.586Z,3.7
2018-02-16T17:40:02.435Z,3.6
2018-02-16T17:45:02.743Z,3.5
2018-02-16T17:50:03.062Z,3.5
2018-02-16T17:55:02.452Z,3.4
2018-02-16T18:00:02.838Z,3.4
2018-02-16T18:05:03.263Z,3.3
2018-02-16T18:10:03.185Z,3.3
2018-02-16T18:15:02.472Z,3.2
2018-02-16T18:20:02.989Z,3.2
2018-02-16T18:25:03.256Z,3
2018-02-16T18:30:07.721Z,2.9
2018-02-16T18:35:05.516Z,2.8
2018-02-16T18:40:02.431Z,2.8
2018-02-16T18:45:02.753Z,2.7
2018-02-16T18:50:03.045Z,2.6
2018-02-16T18:55:02.397Z,2.5
2018-02-16T19:00:02.722Z,2.5
2018-02-16T19:05:03.016Z,2.5
2018-02-16T19:10:02.877Z,2.4
2018-02-16T19:15:03.184Z,2.4
2018-02-16T19:20:02.596Z,2.4
2018-02-16T19:25:02.929Z,2.3
2018-02-16T19:30:08.313Z,2.2
2018-02-16T19:35:02.587Z,2.2
2018-02-16T19:40:02.439Z,2.2
2018-02-16T19:45:02.762Z,2.1
2018-02-16T19:50:03.065Z,2.1
2018-02-16T19:55:02.397Z,2
2018-02-16T20:00:02.708Z,2
2018-02-16T20:05:03.013Z,1.9
2018-02-16T20:10:02.793Z,1.9
2018-02-16T20:15:03.098Z,1.8
2018-02-16T20:20:02.537Z,1.8
2018-02-16T20:25:02.863Z,1.8
2018-02-16T20:30:03.189Z,1.8
2018-02-16T20:35:02.574Z,1.8
2018-02-16T20:40:02.489Z,1.8
2018-02-16T20:45:02.737Z,1.7
2018-02-16T20:50:03.071Z,1.7
2018-02-16T20:55:02.440Z,1.7
2018-02-16T21:00:02.735Z,1.7
2018-02-16T21:05:03.041Z,1.6
2018-02-16T21:10:02.869Z,1.6
2018-02-16T21:15:03.185Z,1.6
2018-02-16T21:20:02.586Z,1.6
2018-02-16T21:25:02.915Z,1.5
2018-02-16T21:30:03.196Z,1.5
2018-02-16T21:35:02.567Z,1.5
2018-02-16T21:40:02.332Z,1.4
2018-02-16T21:45:02.695Z,1.4
2018-02-16T21:50:03.034Z,1.3
2018-02-16T21:55:02.417Z,1.3
2018-02-16T22:00:02.732Z,1.3
2018-02-16T22:05:03.028Z,1.3
2018-02-16T22:10:02.889Z,1.3
2018-02-16T22:15:03.201Z,1.3
2018-02-16T22:20:02.575Z,1.3
2018-02-16T22:25:02.893Z,1.2
2018-02-16T22:30:05.713Z,1.2
2018-02-16T22:35:02.539Z,1.1
2018-02-16T22:40:03.268Z,1.1
2018-02-16T22:45:02.707Z,1.1
2018-02-16T22:50:03.011Z,1.1
2018-02-16T22:55:03.293Z,1.1
2018-02-16T23:00:02.561Z,1.1
2018-02-16T23:05:02.889Z,1.1
2018-02-16T23:10:02.635Z,1
2018-02-16T23:15:05.532Z,1.1
2018-02-16T23:20:02.925Z,1
2018-02-16T23:25:08.300Z,1
2018-02-16T23:30:02.547Z,1
2018-02-16T23:35:02.896Z,1
2018-02-16T23:40:02.576Z,0.9
2018-02-16T23:45:02.963Z,0.8
2018-02-16T23:50:03.291Z,0.8
2018-02-16T23:55:02.713Z,0.7
